Main page
METAR-TAF:

METAR-TAF

Airports :

Flagstaff Pulliam Airport

Flagstaff, Arizona, United States

latitude: 35-08-25N, longitude: 111-40-20W, elevation: 7009 ft

Current weather observation

The report was made 34 minutes ago, at 06:57 UTC
Calm wind
Temperature 27°F
Humidity 80%
Pressure 30.25 in. Hg
Visibility: 10 miles
Clear sky

METAR: KFLG 080657Z AUTO 00000KT 10SM CLR M03/M06 A3025 RMK AO2 SLP240 T10331061 400331033

Time: 00:31 (07:31 UTC)

Forecast

The report was made 2 hours and 8 minutes ago, at 05:23 UTC
Forecast valid from 08 at 06 UTC to 09 at 06 UTC
Wind 6 mph from variable directions
Visibility: 6 miles
Few clouds at a height of 1200 ft
From 08 at 1800 UTC
Wind 9 mph from the Southeast
Visibility: 6 miles
Clear sky

TAF: KFLG 080523Z 0806/0906 VRB05KT P6SM FEW012 FM081800 13008KT P6SM SKC

Weather observations and forecasts of more than 4000 airports (METAR and TAF reports).

The available stations are represented by yellow and red dots on the map.

Hover mouse over dot to see the name of the station.

Then click to see weather observations and forecasts.

To change the map : click on the green buttons with a black cross to zoom in, on the green button with a dash to zoom out, or on the green arrows for adjacent maps.


METAR-TAF: